sensor_id;sensor_type;location;lat;lon;timestamp;P1;durP1;ratioP1;P2;durP2;ratioP2
83769;SDS011;73763;48.936;9.300;2023-11-19T00:01:48;3.50;;;2.90;;
83769;SDS011;73763;48.936;9.300;2023-11-19T00:04:13;3.47;;;2.80;;
83769;SDS011;73763;48.936;9.300;2023-11-19T00:06:39;4.23;;;3.13;;
83769;SDS011;73763;48.936;9.300;2023-11-19T00:09:04;4.47;;;2.80;;
83769;SDS011;73763;48.936;9.300;2023-11-19T00:11:30;3.65;;;2.88;;
83769;SDS011;73763;48.936;9.300;2023-11-19T00:13:55;4.57;;;3.10;;
83769;SDS011;73763;48.936;9.300;2023-11-19T00:16:21;4.30;;;2.85;;
83769;SDS011;73763;48.936;9.300;2023-11-19T00:18:47;5.27;;;2.90;;
83769;SDS011;73763;48.936;9.300;2023-11-19T00:21:12;4.32;;;3.25;;
83769;SDS011;73763;48.936;9.300;2023-11-19T00:23:38;4.80;;;3.23;;
83769;SDS011;73763;48.936;9.300;2023-11-19T00:26:03;4.72;;;2.85;;
83769;SDS011;73763;48.936;9.300;2023-11-19T00:28:29;4.60;;;2.60;;
83769;SDS011;73763;48.936;9.300;2023-11-19T00:30:54;3.88;;;2.80;;
83769;SDS011;73763;48.936;9.300;2023-11-19T00:33:20;4.13;;;2.80;;
83769;SDS011;73763;48.936;9.300;2023-11-19T00:35:45;3.78;;;2.78;;
83769;SDS011;73763;48.936;9.300;2023-11-19T00:38:11;3.87;;;2.50;;
83769;SDS011;73763;48.936;9.300;2023-11-19T00:40:36;4.27;;;2.63;;
83769;SDS011;73763;48.936;9.300;2023-11-19T00:43:02;3.77;;;2.53;;
83769;SDS011;73763;48.936;9.300;2023-11-19T00:45:27;10.57;;;4.43;;
83769;SDS011;73763;48.936;9.300;2023-11-19T00:47:53;4.55;;;2.95;;
83769;SDS011;73763;48.936;9.300;2023-11-19T00:50:18;3.33;;;2.70;;
83769;SDS011;73763;48.936;9.300;2023-11-19T00:52:44;2.72;;;2.53;;
83769;SDS011;73763;48.936;9.300;2023-11-19T00:55:09;2.97;;;2.47;;
83769;SDS011;73763;48.936;9.300;2023-11-19T00:57:35;3.23;;;2.67;;
83769;SDS011;73763;48.936;9.300;2023-11-19T01:00:01;4.80;;;2.40;;
83769;SDS011;73763;48.936;9.300;2023-11-19T01:02:27;4.18;;;2.50;;
83769;SDS011;73763;48.936;9.300;2023-11-19T01:04:52;3.57;;;2.30;;
83769;SDS011;73763;48.936;9.300;2023-11-19T01:07:18;2.97;;;2.65;;
83769;SDS011;73763;48.936;9.300;2023-11-19T01:09:43;5.27;;;2.50;;
83769;SDS011;73763;48.936;9.300;2023-11-19T01:12:09;3.30;;;2.63;;
83769;SDS011;73763;48.936;9.300;2023-11-19T01:14:34;3.43;;;2.70;;
83769;SDS011;73763;48.936;9.300;2023-11-19T01:17:00;3.63;;;2.45;;
83769;SDS011;73763;48.936;9.300;2023-11-19T01:19:26;5.40;;;2.63;;
83769;SDS011;73763;48.936;9.300;2023-11-19T01:21:52;4.10;;;2.70;;
83769;SDS011;73763;48.936;9.300;2023-11-19T01:24:17;4.97;;;3.00;;
83769;SDS011;73763;48.936;9.300;2023-11-19T01:26:43;3.87;;;3.33;;
83769;SDS011;73763;48.936;9.300;2023-11-19T01:29:09;5.40;;;3.13;;
83769;SDS011;73763;48.936;9.300;2023-11-19T01:31:34;4.57;;;3.50;;
83769;SDS011;73763;48.936;9.300;2023-11-19T01:34:00;4.87;;;3.37;;
83769;SDS011;73763;48.936;9.300;2023-11-19T01:36:25;4.82;;;3.38;;
83769;SDS011;73763;48.936;9.300;2023-11-19T01:38:51;8.07;;;4.50;;
83769;SDS011;73763;48.936;9.300;2023-11-19T01:41:16;7.90;;;3.55;;
83769;SDS011;73763;48.936;9.300;2023-11-19T01:43:42;8.50;;;4.10;;
83769;SDS011;73763;48.936;9.300;2023-11-19T01:46:07;5.03;;;2.80;;
83769;SDS011;73763;48.936;9.300;2023-11-19T01:48:33;2.83;;;2.43;;
83769;SDS011;73763;48.936;9.300;2023-11-19T01:50:59;3.33;;;2.50;;
83769;SDS011;73763;48.936;9.300;2023-11-19T01:53:25;3.08;;;2.25;;
83769;SDS011;73763;48.936;9.300;2023-11-19T01:55:52;2.40;;;2.20;;
83769;SDS011;73763;48.936;9.300;2023-11-19T01:58:18;2.63;;;2.10;;
83769;SDS011;73763;48.936;9.300;2023-11-19T02:00:44;2.40;;;1.88;;
83769;SDS011;73763;48.936;9.300;2023-11-19T02:03:10;2.47;;;1.70;;
83769;SDS011;73763;48.936;9.300;2023-11-19T02:05:36;2.92;;;1.88;;
83769;SDS011;73763;48.936;9.300;2023-11-19T02:08:03;2.35;;;1.73;;
83769;SDS011;73763;48.936;9.300;2023-11-19T02:10:29;3.30;;;2.00;;
83769;SDS011;73763;48.936;9.300;2023-11-19T02:12:54;4.85;;;1.77;;
83769;SDS011;73763;48.936;9.300;2023-11-19T02:15:20;1.93;;;1.70;;
83769;SDS011;73763;48.936;9.300;2023-11-19T02:17:45;2.08;;;1.65;;
83769;SDS011;73763;48.936;9.300;2023-11-19T02:20:11;2.27;;;1.57;;
83769;SDS011;73763;48.936;9.300;2023-11-19T02:22:37;2.63;;;1.50;;
83769;SDS011;73763;48.936;9.300;2023-11-19T02:25:07;2.00;;;1.80;;
83769;SDS011;73763;48.936;9.300;2023-11-19T02:30:18;2.13;;;1.40;;
83769;SDS011;73763;48.936;9.300;2023-11-19T02:32:43;2.30;;;1.50;;
83769;SDS011;73763;48.936;9.300;2023-11-19T02:35:09;2.50;;;1.50;;
83769;SDS011;73763;48.936;9.300;2023-11-19T02:37:34;2.17;;;1.70;;
83769;SDS011;73763;48.936;9.300;2023-11-19T02:40:00;3.83;;;2.30;;
83769;SDS011;73763;48.936;9.300;2023-11-19T02:42:25;2.50;;;1.70;;
83769;SDS011;73763;48.936;9.300;2023-11-19T02:44:51;2.43;;;1.63;;
83769;SDS011;73763;48.936;9.300;2023-11-19T02:47:16;2.63;;;1.40;;
83769;SDS011;73763;48.936;9.300;2023-11-19T02:49:42;1.80;;;1.30;;
83769;SDS011;73763;48.936;9.300;2023-11-19T02:52:07;1.43;;;1.20;;
83769;SDS011;73763;48.936;9.300;2023-11-19T02:54:33;2.75;;;1.52;;
83769;SDS011;73763;48.936;9.300;2023-11-19T02:56:58;2.37;;;1.30;;
83769;SDS011;73763;48.936;9.300;2023-11-19T02:59:24;1.97;;;1.50;;
83769;SDS011;73763;48.936;9.300;2023-11-19T03:01:49;2.95;;;1.60;;
83769;SDS011;73763;48.936;9.300;2023-11-19T03:04:15;2.37;;;1.87;;
83769;SDS011;73763;48.936;9.300;2023-11-19T03:06:40;1.70;;;1.50;;
83769;SDS011;73763;48.936;9.300;2023-11-19T03:09:06;3.37;;;1.37;;
83769;SDS011;73763;48.936;9.300;2023-11-19T03:11:31;1.40;;;1.23;;
83769;SDS011;73763;48.936;9.300;2023-11-19T03:13:57;2.63;;;1.33;;
83769;SDS011;73763;48.936;9.300;2023-11-19T03:16:22;3.70;;;2.23;;
83769;SDS011;73763;48.936;9.300;2023-11-19T03:18:48;3.13;;;2.60;;
83769;SDS011;73763;48.936;9.300;2023-11-19T03:21:13;3.80;;;2.80;;
83769;SDS011;73763;48.936;9.300;2023-11-19T03:23:39;3.63;;;3.00;;
83769;SDS011;73763;48.936;9.300;2023-11-19T03:26:04;3.30;;;2.88;;
83769;SDS011;73763;48.936;9.300;2023-11-19T03:28:30;4.13;;;3.03;;
83769;SDS011;73763;48.936;9.300;2023-11-19T03:30:55;4.47;;;3.60;;
83769;SDS011;73763;48.936;9.300;2023-11-19T03:33:21;4.47;;;3.30;;
83769;SDS011;73763;48.936;9.300;2023-11-19T03:35:46;4.10;;;3.23;;
83769;SDS011;73763;48.936;9.300;2023-11-19T03:38:12;4.18;;;3.08;;
83769;SDS011;73763;48.936;9.300;2023-11-19T03:40:37;3.90;;;3.07;;
83769;SDS011;73763;48.936;9.300;2023-11-19T03:43:03;4.30;;;2.55;;
83769;SDS011;73763;48.936;9.300;2023-11-19T03:45:28;3.80;;;3.27;;
83769;SDS011;73763;48.936;9.300;2023-11-19T03:47:54;5.40;;;4.40;;
83769;SDS011;73763;48.936;9.300;2023-11-19T03:50:19;4.82;;;4.32;;
83769;SDS011;73763;48.936;9.300;2023-11-19T03:52:45;4.40;;;4.00;;
83769;SDS011;73763;48.936;9.300;2023-11-19T03:55:11;4.35;;;3.90;;
83769;SDS011;73763;48.936;9.300;2023-11-19T03:57:36;3.95;;;3.60;;
83769;SDS011;73763;48.936;9.300;2023-11-19T04:00:02;3.50;;;3.10;;
83769;SDS011;73763;48.936;9.300;2023-11-19T04:02:28;4.30;;;3.08;;
83769;SDS011;73763;48.936;9.300;2023-11-19T04:04:53;4.70;;;4.20;;
83769;SDS011;73763;48.936;9.300;2023-11-19T04:07:19;5.00;;;4.00;;
83769;SDS011;73763;48.936;9.300;2023-11-19T04:09:45;6.60;;;4.87;;
83769;SDS011;73763;48.936;9.300;2023-11-19T04:12:11;5.10;;;4.60;;
83769;SDS011;73763;48.936;9.300;2023-11-19T04:14:36;5.10;;;4.70;;
83769;SDS011;73763;48.936;9.300;2023-11-19T04:17:02;5.17;;;4.67;;
83769;SDS011;73763;48.936;9.300;2023-11-19T04:19:27;4.70;;;4.30;;
83769;SDS011;73763;48.936;9.300;2023-11-19T04:21:53;4.87;;;4.30;;
83769;SDS011;73763;48.936;9.300;2023-11-19T04:24:18;4.95;;;3.72;;
83769;SDS011;73763;48.936;9.300;2023-11-19T04:26:44;5.90;;;5.20;;
83769;SDS011;73763;48.936;9.300;2023-11-19T04:29:13;5.38;;;3.50;;
83769;SDS011;73763;48.936;9.300;2023-11-19T04:31:41;6.55;;;3.88;;
83769;SDS011;73763;48.936;9.300;2023-11-19T04:34:07;3.63;;;2.50;;
83769;SDS011;73763;48.936;9.300;2023-11-19T04:36:33;2.95;;;2.33;;
83769;SDS011;73763;48.936;9.300;2023-11-19T04:38:59;3.53;;;2.10;;
83769;SDS011;73763;48.936;9.300;2023-11-19T04:41:25;3.47;;;2.25;;
83769;SDS011;73763;48.936;9.300;2023-11-19T04:43:51;2.15;;;1.95;;
83769;SDS011;73763;48.936;9.300;2023-11-19T04:46:17;2.57;;;1.57;;
83769;SDS011;73763;48.936;9.300;2023-11-19T04:48:42;1.95;;;1.50;;
83769;SDS011;73763;48.936;9.300;2023-11-19T04:51:08;1.90;;;1.27;;
83769;SDS011;73763;48.936;9.300;2023-11-19T04:53:33;2.65;;;1.33;;
83769;SDS011;73763;48.936;9.300;2023-11-19T04:55:59;1.43;;;1.33;;
83769;SDS011;73763;48.936;9.300;2023-11-19T04:58:24;2.40;;;1.50;;
83769;SDS011;73763;48.936;9.300;2023-11-19T05:00:50;2.70;;;1.60;;
83769;SDS011;73763;48.936;9.300;2023-11-19T05:03:15;2.63;;;2.07;;
83769;SDS011;73763;48.936;9.300;2023-11-19T05:05:41;1.80;;;1.70;;
83769;SDS011;73763;48.936;9.300;2023-11-19T05:08:06;3.50;;;2.10;;
83769;SDS011;73763;48.936;9.300;2023-11-19T05:10:32;2.50;;;2.30;;
83769;SDS011;73763;48.936;9.300;2023-11-19T05:12:57;2.73;;;2.30;;
83769;SDS011;73763;48.936;9.300;2023-11-19T05:15:23;2.20;;;2.00;;
83769;SDS011;73763;48.936;9.300;2023-11-19T05:17:48;2.30;;;2.10;;
83769;SDS011;73763;48.936;9.300;2023-11-19T05:20:14;1.80;;;1.70;;
83769;SDS011;73763;48.936;9.300;2023-11-19T05:22:40;1.50;;;1.40;;
83769;SDS011;73763;48.936;9.300;2023-11-19T05:25:06;5.53;;;3.67;;
83769;SDS011;73763;48.936;9.300;2023-11-19T05:27:32;4.50;;;2.70;;
83769;SDS011;73763;48.936;9.300;2023-11-19T05:29:57;3.80;;;3.03;;
83769;SDS011;73763;48.936;9.300;2023-11-19T05:32:23;2.42;;;2.08;;
83769;SDS011;73763;48.936;9.300;2023-11-19T05:34:48;2.90;;;1.90;;
83769;SDS011;73763;48.936;9.300;2023-11-19T05:37:14;2.13;;;1.93;;
83769;SDS011;73763;48.936;9.300;2023-11-19T05:39:39;2.10;;;1.70;;
83769;SDS011;73763;48.936;9.300;2023-11-19T05:42:05;1.90;;;1.80;;
83769;SDS011;73763;48.936;9.300;2023-11-19T05:44:30;2.10;;;1.90;;
83769;SDS011;73763;48.936;9.300;2023-11-19T05:46:56;2.77;;;1.70;;
83769;SDS011;73763;48.936;9.300;2023-11-19T05:49:21;1.63;;;1.53;;
83769;SDS011;73763;48.936;9.300;2023-11-19T05:51:47;1.80;;;1.20;;
83769;SDS011;73763;48.936;9.300;2023-11-19T05:54:12;1.90;;;1.67;;
83769;SDS011;73763;48.936;9.300;2023-11-19T05:56:38;1.55;;;1.45;;
83769;SDS011;73763;48.936;9.300;2023-11-19T05:59:03;2.90;;;1.80;;
83769;SDS011;73763;48.936;9.300;2023-11-19T06:01:29;1.50;;;1.40;;
83769;SDS011;73763;48.936;9.300;2023-11-19T06:03:55;1.70;;;1.50;;
83769;SDS011;73763;48.936;9.300;2023-11-19T06:06:20;4.23;;;2.90;;
83769;SDS011;73763;48.936;9.300;2023-11-19T06:08:46;3.72;;;2.50;;
83769;SDS011;73763;48.936;9.300;2023-11-19T06:11:11;3.00;;;1.93;;
83769;SDS011;73763;48.936;9.300;2023-11-19T06:13:37;4.63;;;2.78;;
83769;SDS011;73763;48.936;9.300;2023-11-19T06:16:03;3.87;;;2.33;;
83769;SDS011;73763;48.936;9.300;2023-11-19T06:18:28;1.77;;;1.63;;
83769;SDS011;73763;48.936;9.300;2023-11-19T06:20:54;1.13;;;0.83;;
83769;SDS011;73763;48.936;9.300;2023-11-19T06:23:19;1.00;;;0.90;;
83769;SDS011;73763;48.936;9.300;2023-11-19T06:25:45;1.57;;;0.80;;
83769;SDS011;73763;48.936;9.300;2023-11-19T06:28:10;0.85;;;0.77;;
83769;SDS011;73763;48.936;9.300;2023-11-19T06:30:36;2.73;;;0.87;;
83769;SDS011;73763;48.936;9.300;2023-11-19T06:33:01;1.73;;;0.70;;
83769;SDS011;73763;48.936;9.300;2023-11-19T06:35:27;1.48;;;0.95;;
83769;SDS011;73763;48.936;9.300;2023-11-19T06:37:52;1.10;;;0.70;;
83769;SDS011;73763;48.936;9.300;2023-11-19T06:40:18;5.65;;;1.30;;
83769;SDS011;73763;48.936;9.300;2023-11-19T06:42:43;0.70;;;0.70;;
83769;SDS011;73763;48.936;9.300;2023-11-19T06:45:09;3.03;;;1.97;;
83769;SDS011;73763;48.936;9.300;2023-11-19T06:47:34;4.18;;;1.70;;
83769;SDS011;73763;48.936;9.300;2023-11-19T06:50:00;0.77;;;0.70;;
83769;SDS011;73763;48.936;9.300;2023-11-19T06:52:25;1.00;;;0.68;;
83769;SDS011;73763;48.936;9.300;2023-11-19T06:54:51;1.00;;;0.90;;
83769;SDS011;73763;48.936;9.300;2023-11-19T06:57:16;1.70;;;1.30;;
83769;SDS011;73763;48.936;9.300;2023-11-19T06:59:42;1.80;;;1.00;;
83769;SDS011;73763;48.936;9.300;2023-11-19T07:02:07;3.03;;;0.83;;
83769;SDS011;73763;48.936;9.300;2023-11-19T07:04:33;0.80;;;0.80;;
83769;SDS011;73763;48.936;9.300;2023-11-19T07:06:59;1.70;;;0.87;;
83769;SDS011;73763;48.936;9.300;2023-11-19T07:09:24;2.07;;;0.83;;
83769;SDS011;73763;48.936;9.300;2023-11-19T07:11:50;2.88;;;1.10;;
83769;SDS011;73763;48.936;9.300;2023-11-19T07:14:15;2.53;;;0.90;;
83769;SDS011;73763;48.936;9.300;2023-11-19T07:16:41;0.70;;;0.70;;
83769;SDS011;73763;48.936;9.300;2023-11-19T07:19:08;3.25;;;0.77;;
83769;SDS011;73763;48.936;9.300;2023-11-19T07:21:33;1.77;;;0.80;;
83769;SDS011;73763;48.936;9.300;2023-11-19T07:23:59;0.60;;;0.60;;
83769;SDS011;73763;48.936;9.300;2023-11-19T07:26:25;0.85;;;0.50;;
83769;SDS011;73763;48.936;9.300;2023-11-19T07:28:51;3.20;;;0.50;;
83769;SDS011;73763;48.936;9.300;2023-11-19T07:31:17;1.27;;;0.50;;
83769;SDS011;73763;48.936;9.300;2023-11-19T07:33:43;2.15;;;0.40;;
83769;SDS011;73763;48.936;9.300;2023-11-19T07:36:08;0.70;;;0.40;;
83769;SDS011;73763;48.936;9.300;2023-11-19T07:38:35;1.20;;;0.50;;
83769;SDS011;73763;48.936;9.300;2023-11-19T07:41:00;1.00;;;0.60;;
83769;SDS011;73763;48.936;9.300;2023-11-19T07:43:26;0.70;;;0.60;;
83769;SDS011;73763;48.936;9.300;2023-11-19T07:45:51;1.08;;;0.60;;
83769;SDS011;73763;48.936;9.300;2023-11-19T07:48:17;0.40;;;0.40;;
83769;SDS011;73763;48.936;9.300;2023-11-19T07:50:43;0.52;;;0.52;;
83769;SDS011;73763;48.936;9.300;2023-11-19T07:53:08;0.67;;;0.60;;
83769;SDS011;73763;48.936;9.300;2023-11-19T07:55:34;0.90;;;0.40;;
83769;SDS011;73763;48.936;9.300;2023-11-19T07:57:59;1.50;;;0.30;;
83769;SDS011;73763;48.936;9.300;2023-11-19T08:00:25;2.07;;;0.60;;
83769;SDS011;73763;48.936;9.300;2023-11-19T08:02:50;1.17;;;0.60;;
83769;SDS011;73763;48.936;9.300;2023-11-19T08:05:16;2.00;;;0.53;;
83769;SDS011;73763;48.936;9.300;2023-11-19T08:07:41;0.90;;;0.60;;
83769;SDS011;73763;48.936;9.300;2023-11-19T08:10:07;2.30;;;0.90;;
83769;SDS011;73763;48.936;9.300;2023-11-19T08:12:33;3.08;;;1.10;;
83769;SDS011;73763;48.936;9.300;2023-11-19T08:14:58;1.53;;;0.60;;
83769;SDS011;73763;48.936;9.300;2023-11-19T08:17:24;1.53;;;0.60;;
83769;SDS011;73763;48.936;9.300;2023-11-19T08:19:50;0.87;;;0.60;;
83769;SDS011;73763;48.936;9.300;2023-11-19T08:22:16;0.40;;;0.40;;
83769;SDS011;73763;48.936;9.300;2023-11-19T08:24:42;1.40;;;0.50;;
83769;SDS011;73763;48.936;9.300;2023-11-19T08:27:07;0.50;;;0.33;;
83769;SDS011;73763;48.936;9.300;2023-11-19T08:29:33;1.15;;;0.60;;
83769;SDS011;73763;48.936;9.300;2023-11-19T08:31:59;0.50;;;0.50;;
83769;SDS011;73763;48.936;9.300;2023-11-19T08:34:26;0.68;;;0.50;;
83769;SDS011;73763;48.936;9.300;2023-11-19T08:36:52;0.70;;;0.50;;
83769;SDS011;73763;48.936;9.300;2023-11-19T08:39:17;1.67;;;0.50;;
83769;SDS011;73763;48.936;9.300;2023-11-19T08:41:43;0.90;;;0.57;;
83769;SDS011;73763;48.936;9.300;2023-11-19T08:44:08;0.80;;;0.40;;
83769;SDS011;73763;48.936;9.300;2023-11-19T08:46:34;1.43;;;0.50;;
83769;SDS011;73763;48.936;9.300;2023-11-19T08:48:59;1.90;;;0.60;;
83769;SDS011;73763;48.936;9.300;2023-11-19T08:51:25;0.68;;;0.55;;
83769;SDS011;73763;48.936;9.300;2023-11-19T08:53:50;0.70;;;0.60;;
83769;SDS011;73763;48.936;9.300;2023-11-19T08:56:16;1.63;;;0.70;;
83769;SDS011;73763;48.936;9.300;2023-11-19T08:58:41;0.82;;;0.65;;
83769;SDS011;73763;48.936;9.300;2023-11-19T09:01:07;0.60;;;0.60;;
83769;SDS011;73763;48.936;9.300;2023-11-19T09:03:32;1.05;;;0.55;;
83769;SDS011;73763;48.936;9.300;2023-11-19T09:05:58;0.97;;;0.50;;
83769;SDS011;73763;48.936;9.300;2023-11-19T09:08:24;1.42;;;0.50;;
83769;SDS011;73763;48.936;9.300;2023-11-19T09:10:50;3.13;;;0.63;;
83769;SDS011;73763;48.936;9.300;2023-11-19T09:13:15;2.20;;;0.60;;
83769;SDS011;73763;48.936;9.300;2023-11-19T09:15:41;1.83;;;0.60;;
83769;SDS011;73763;48.936;9.300;2023-11-19T09:18:06;2.37;;;0.57;;
83769;SDS011;73763;48.936;9.300;2023-11-19T09:20:32;1.23;;;0.67;;
83769;SDS011;73763;48.936;9.300;2023-11-19T09:22:58;2.55;;;0.60;;
83769;SDS011;73763;48.936;9.300;2023-11-19T09:25:23;1.43;;;0.60;;
83769;SDS011;73763;48.936;9.300;2023-11-19T09:27:49;2.90;;;0.70;;
83769;SDS011;73763;48.936;9.300;2023-11-19T09:30:14;1.30;;;0.80;;
83769;SDS011;73763;48.936;9.300;2023-11-19T09:32:40;1.37;;;0.80;;
83769;SDS011;73763;48.936;9.300;2023-11-19T09:35:05;1.20;;;0.60;;
83769;SDS011;73763;48.936;9.300;2023-11-19T09:37:31;2.13;;;0.70;;
83769;SDS011;73763;48.936;9.300;2023-11-19T09:39:56;2.60;;;1.30;;
83769;SDS011;73763;48.936;9.300;2023-11-19T09:42:23;1.35;;;0.70;;
83769;SDS011;73763;48.936;9.300;2023-11-19T09:44:49;1.45;;;0.88;;
83769;SDS011;73763;48.936;9.300;2023-11-19T09:47:14;1.40;;;0.75;;
83769;SDS011;73763;48.936;9.300;2023-11-19T09:49:44;1.52;;;0.80;;
83769;SDS011;73763;48.936;9.300;2023-11-19T09:52:09;1.10;;;0.80;;
83769;SDS011;73763;48.936;9.300;2023-11-19T09:54:35;1.98;;;0.70;;
83769;SDS011;73763;48.936;9.300;2023-11-19T09:57:00;1.90;;;0.90;;
83769;SDS011;73763;48.936;9.300;2023-11-19T09:59:29;3.03;;;1.00;;
83769;SDS011;73763;48.936;9.300;2023-11-19T10:01:55;2.53;;;0.87;;
83769;SDS011;73763;48.936;9.300;2023-11-19T10:04:21;2.13;;;1.00;;
83769;SDS011;73763;48.936;9.300;2023-11-19T10:06:48;3.63;;;1.03;;
83769;SDS011;73763;48.936;9.300;2023-11-19T10:09:15;3.40;;;1.00;;
83769;SDS011;73763;48.936;9.300;2023-11-19T10:11:40;2.25;;;0.90;;
83769;SDS011;73763;48.936;9.300;2023-11-19T10:14:06;2.00;;;0.90;;
83769;SDS011;73763;48.936;9.300;2023-11-19T10:16:31;4.53;;;0.90;;
83769;SDS011;73763;48.936;9.300;2023-11-19T10:19:00;1.70;;;0.77;;
83769;SDS011;73763;48.936;9.300;2023-11-19T10:21:25;2.57;;;0.80;;
83769;SDS011;73763;48.936;9.300;2023-11-19T10:23:54;3.05;;;0.75;;
83769;SDS011;73763;48.936;9.300;2023-11-19T10:26:21;1.17;;;0.65;;
83769;SDS011;73763;48.936;9.300;2023-11-19T10:28:47;2.35;;;0.73;;
83769;SDS011;73763;48.936;9.300;2023-11-19T10:31:13;1.70;;;0.60;;
83769;SDS011;73763;48.936;9.300;2023-11-19T10:33:39;2.00;;;0.70;;
83769;SDS011;73763;48.936;9.300;2023-11-19T10:36:05;2.70;;;0.68;;
83769;SDS011;73763;48.936;9.300;2023-11-19T10:38:31;2.30;;;0.77;;
83769;SDS011;73763;48.936;9.300;2023-11-19T10:40:57;1.77;;;0.87;;
83769;SDS011;73763;48.936;9.300;2023-11-19T10:43:22;2.00;;;0.65;;
83769;SDS011;73763;48.936;9.300;2023-11-19T10:45:48;1.33;;;0.60;;
83769;SDS011;73763;48.936;9.300;2023-11-19T10:48:14;1.10;;;0.60;;
83769;SDS011;73763;48.936;9.300;2023-11-19T10:50:40;3.15;;;0.77;;
83769;SDS011;73763;48.936;9.300;2023-11-19T10:53:11;2.35;;;1.00;;
83769;SDS011;73763;48.936;9.300;2023-11-19T10:55:37;1.57;;;0.70;;
83769;SDS011;73763;48.936;9.300;2023-11-19T10:58:04;3.75;;;0.95;;
83769;SDS011;73763;48.936;9.300;2023-11-19T11:00:52;2.00;;;0.67;;
83769;SDS011;73763;48.936;9.300;2023-11-19T11:03:22;1.27;;;0.60;;
83769;SDS011;73763;48.936;9.300;2023-11-19T11:05:51;4.82;;;0.80;;
83769;SDS011;73763;48.936;9.300;2023-11-19T11:08:18;2.20;;;0.63;;
83769;SDS011;73763;48.936;9.300;2023-11-19T11:10:45;2.38;;;0.75;;
83769;SDS011;73763;48.936;9.300;2023-11-19T11:13:17;1.95;;;0.70;;
83769;SDS011;73763;48.936;9.300;2023-11-19T11:15:44;2.60;;;0.70;;
83769;SDS011;73763;48.936;9.300;2023-11-19T11:18:10;2.80;;;0.70;;
83769;SDS011;73763;48.936;9.300;2023-11-19T11:20:35;1.42;;;0.60;;
83769;SDS011;73763;48.936;9.300;2023-11-19T11:23:15;2.03;;;0.75;;
83769;SDS011;73763;48.936;9.300;2023-11-19T11:37:24;3.45;;;0.90;;
83769;SDS011;73763;48.936;9.300;2023-11-19T11:40:02;2.58;;;0.85;;
83769;SDS011;73763;48.936;9.300;2023-11-19T11:42:33;2.72;;;1.00;;
83769;SDS011;73763;48.936;9.300;2023-11-19T11:45:03;2.88;;;1.00;;
83769;SDS011;73763;48.936;9.300;2023-11-19T11:50:12;2.60;;;1.20;;
83769;SDS011;73763;48.936;9.300;2023-11-19T11:55:34;3.28;;;1.10;;
83769;SDS011;73763;48.936;9.300;2023-11-19T11:58:01;2.25;;;0.80;;
83769;SDS011;73763;48.936;9.300;2023-11-19T12:00:27;2.00;;;0.90;;
83769;SDS011;73763;48.936;9.300;2023-11-19T12:02:56;1.80;;;0.75;;
83769;SDS011;73763;48.936;9.300;2023-11-19T12:05:22;4.57;;;1.00;;
83769;SDS011;73763;48.936;9.300;2023-11-19T12:08:00;2.72;;;0.90;;
83769;SDS011;73763;48.936;9.300;2023-11-19T12:10:31;3.20;;;1.00;;
83769;SDS011;73763;48.936;9.300;2023-11-19T12:13:01;4.15;;;0.85;;
83769;SDS011;73763;48.936;9.300;2023-11-19T12:15:29;2.50;;;1.00;;
83769;SDS011;73763;48.936;9.300;2023-11-19T12:17:55;1.90;;;0.85;;
83769;SDS011;73763;48.936;9.300;2023-11-19T12:20:24;2.63;;;0.90;;
83769;SDS011;73763;48.936;9.300;2023-11-19T12:22:50;2.58;;;0.95;;
83769;SDS011;73763;48.936;9.300;2023-11-19T12:25:17;3.27;;;0.90;;
83769;SDS011;73763;48.936;9.300;2023-11-19T12:27:44;2.70;;;0.85;;
83769;SDS011;73763;48.936;9.300;2023-11-19T12:30:25;2.33;;;0.80;;
83769;SDS011;73763;48.936;9.300;2023-11-19T12:32:51;3.07;;;1.00;;
83769;SDS011;73763;48.936;9.300;2023-11-19T12:35:17;4.53;;;0.90;;
83769;SDS011;73763;48.936;9.300;2023-11-19T12:37:44;3.40;;;1.10;;
83769;SDS011;73763;48.936;9.300;2023-11-19T12:40:14;2.93;;;0.80;;
83769;SDS011;73763;48.936;9.300;2023-11-19T12:42:47;2.40;;;0.80;;
83769;SDS011;73763;48.936;9.300;2023-11-19T12:45:16;3.42;;;0.70;;
83769;SDS011;73763;48.936;9.300;2023-11-19T12:47:43;3.40;;;0.70;;
83769;SDS011;73763;48.936;9.300;2023-11-19T12:50:09;2.67;;;0.90;;
83769;SDS011;73763;48.936;9.300;2023-11-19T12:52:35;2.13;;;0.80;;
83769;SDS011;73763;48.936;9.300;2023-11-19T12:55:02;2.08;;;0.90;;
83769;SDS011;73763;48.936;9.300;2023-11-19T12:57:41;1.83;;;0.90;;
83769;SDS011;73763;48.936;9.300;2023-11-19T13:00:07;2.28;;;0.80;;
83769;SDS011;73763;48.936;9.300;2023-11-19T13:02:47;1.20;;;0.68;;
83769;SDS011;73763;48.936;9.300;2023-11-19T13:07:51;2.17;;;0.60;;
83769;SDS011;73763;48.936;9.300;2023-11-19T13:10:16;1.70;;;0.90;;
83769;SDS011;73763;48.936;9.300;2023-11-19T13:12:43;2.20;;;0.67;;
83769;SDS011;73763;48.936;9.300;2023-11-19T13:15:22;1.27;;;0.70;;
83769;SDS011;73763;48.936;9.300;2023-11-19T13:17:48;2.47;;;0.90;;
83769;SDS011;73763;48.936;9.300;2023-11-19T13:20:13;2.50;;;0.80;;
83769;SDS011;73763;48.936;9.300;2023-11-19T13:22:39;2.47;;;1.00;;
83769;SDS011;73763;48.936;9.300;2023-11-19T13:25:22;3.95;;;1.05;;
83769;SDS011;73763;48.936;9.300;2023-11-19T13:27:48;2.30;;;0.80;;
83769;SDS011;73763;48.936;9.300;2023-11-19T13:30:13;3.90;;;0.90;;
83769;SDS011;73763;48.936;9.300;2023-11-19T13:32:39;2.13;;;0.80;;
83769;SDS011;73763;48.936;9.300;2023-11-19T13:35:05;2.73;;;0.80;;
83769;SDS011;73763;48.936;9.300;2023-11-19T13:37:31;2.90;;;0.80;;
83769;SDS011;73763;48.936;9.300;2023-11-19T13:39:57;3.75;;;0.98;;
83769;SDS011;73763;48.936;9.300;2023-11-19T13:42:22;2.00;;;0.80;;
83769;SDS011;73763;48.936;9.300;2023-11-19T13:44:48;2.50;;;1.00;;
83769;SDS011;73763;48.936;9.300;2023-11-19T13:47:13;2.13;;;0.80;;
83769;SDS011;73763;48.936;9.300;2023-11-19T13:49:39;2.50;;;0.73;;
83769;SDS011;73763;48.936;9.300;2023-11-19T13:52:04;1.90;;;0.80;;
83769;SDS011;73763;48.936;9.300;2023-11-19T13:54:30;1.88;;;0.80;;
83769;SDS011;73763;48.936;9.300;2023-11-19T13:56:56;2.67;;;0.70;;
83769;SDS011;73763;48.936;9.300;2023-11-19T13:59:21;2.10;;;0.83;;
83769;SDS011;73763;48.936;9.300;2023-11-19T14:01:47;2.47;;;0.80;;
83769;SDS011;73763;48.936;9.300;2023-11-19T14:04:12;3.30;;;0.80;;
83769;SDS011;73763;48.936;9.300;2023-11-19T14:06:38;2.35;;;0.77;;
83769;SDS011;73763;48.936;9.300;2023-11-19T14:09:03;1.93;;;0.87;;
83769;SDS011;73763;48.936;9.300;2023-11-19T14:11:31;1.13;;;0.60;;
83769;SDS011;73763;48.936;9.300;2023-11-19T14:13:56;1.90;;;0.80;;
83769;SDS011;73763;48.936;9.300;2023-11-19T14:16:22;3.58;;;0.85;;
83769;SDS011;73763;48.936;9.300;2023-11-19T14:18:52;2.15;;;0.73;;
83769;SDS011;73763;48.936;9.300;2023-11-19T14:21:17;2.30;;;0.67;;
83769;SDS011;73763;48.936;9.300;2023-11-19T14:23:43;2.00;;;0.70;;
83769;SDS011;73763;48.936;9.300;2023-11-19T14:26:08;2.42;;;0.70;;
83769;SDS011;73763;48.936;9.300;2023-11-19T14:28:34;1.88;;;0.80;;
83769;SDS011;73763;48.936;9.300;2023-11-19T14:30:59;1.73;;;0.70;;
83769;SDS011;73763;48.936;9.300;2023-11-19T14:33:25;2.87;;;0.90;;
83769;SDS011;73763;48.936;9.300;2023-11-19T14:51:54;2.13;;;0.70;;
83769;SDS011;73763;48.936;9.300;2023-11-19T14:54:19;2.70;;;0.80;;
83769;SDS011;73763;48.936;9.300;2023-11-19T14:56:45;2.37;;;0.87;;
83769;SDS011;73763;48.936;9.300;2023-11-19T14:59:10;3.95;;;0.90;;
83769;SDS011;73763;48.936;9.300;2023-11-19T15:01:36;4.47;;;0.87;;
83769;SDS011;73763;48.936;9.300;2023-11-19T15:04:01;3.00;;;0.80;;
83769;SDS011;73763;48.936;9.300;2023-11-19T15:06:27;2.25;;;0.80;;
83769;SDS011;73763;48.936;9.300;2023-11-19T15:08:53;3.03;;;1.10;;
83769;SDS011;73763;48.936;9.300;2023-11-19T15:11:18;2.60;;;1.00;;
83769;SDS011;73763;48.936;9.300;2023-11-19T15:13:44;1.48;;;0.90;;
83769;SDS011;73763;48.936;9.300;2023-11-19T15:16:09;2.00;;;0.83;;
83769;SDS011;73763;48.936;9.300;2023-11-19T15:18:35;1.80;;;0.80;;
83769;SDS011;73763;48.936;9.300;2023-11-19T15:21:00;2.90;;;0.90;;